Список аэропортов
Фактическая погода:

23 февраля, 17:50
Температура: +4°C (-0.4*)
Ветер: восточный 6 м/с
Давление: *778 мм
Без существ. явл.
Время (МСК)Темп. СВетерВлажностьДавлениеОблачностьОсадки
15:00+2В, 6 м/с38%1042 гПаоблачно
16:00+3В, 5 м/с38%1041 гПаоблачно
17:00+3В, 5 м/с38%1041 гПаоблачно
18:00+2В, 5 м/с39%1041 гПаоблачно
19:00+1В, 5 м/с39%1041 гПаоблачно
20:00+1СВ, 4 м/с44%1042 гПаоблачно
21:000В, 4 м/с47%1042 гПамалооблачно
22:00-0В, 3 м/с50%1043 гПаясно
23:00-1В, 3 м/с52%1043 гПаясно
24 февраля
00:00-1В, 2 м/с53%1043 гПаясно
01:00-2В, 3 м/с54%1043 гПаясно
02:00-2В, 2 м/с54%1043 гПаясно
03:00-2В, 2 м/с54%1043 гПаясно
04:00-2В, 3 м/с54%1043 гПаясно
05:00-2В, 3 м/с54%1043 гПаясно
06:00-2В, 3 м/с53%1042 гПаясно
07:00-3В, 2 м/с52%1042 гПаясно
08:00-3В, 2 м/с54%1042 гПаясно
09:00-3В, 2 м/с54%1043 гПаясно
10:00-3В, 2 м/с54%1043 гПаясно
11:00-2В, 2 м/с52%1042 гПаясно
12:00-0СВ, 3 м/с49%1042 гПаясно
13:00+2СВ, 2 м/с45%1042 гПаясно
14:00+3В, 3 м/с42%1041 гПас прояснениями
15:00+5В, 3 м/с41%1041 гПаоблачно
16:00+6В, 3 м/с40%1040 гПамалооблачно
17:00+6СВ, 3 м/с40%1040 гПамалооблачно
18:00+6СВ, 3 м/с40%1040 гПаясно
19:00+5СВ, 3 м/с38%1041 гПаясно
20:00+3В, 2 м/с48%1041 гПаясно
21:00+2В, 1 м/с55%1042 гПаясно
22:00+1СВ, 1 м/с61%1042 гПаясно
23:000СВ, 1 м/с65%1043 гПаясно
25 февраля
00:00-0СВ, 1 м/с67%1043 гПаясно
01:00-0СВ, 1 м/с68%1042 гПаясно
02:00-1СВ, 1 м/с68%1043 гПаясно
03:00-1СВ, 1 м/с69%1043 гПаясно
04:00-1СВ, 1 м/с70%1043 гПамалооблачно
05:00-1В, 1 м/с71%1042 гПамалооблачно
06:00-2В, 1 м/с71%1042 гПаоблачно
07:00-1В, 1 м/с70%1042 гПаоблачно
08:00-1СВ, 1 м/с67%1042 гПаоблачно
09:00-1СВ, 1 м/с65%1043 гПаоблачно
10:00-1Штиль 64%1043 гПаоблачно
11:00-0С, 1 м/с59%1043 гПас прояснениями
12:00+3В, 1 м/с45%1042 гПамалооблачно
13:00+6В, 1 м/с44%1041 гПаясно
14:00+8В, 2 м/с46%1040 гПаясно
15:00+10В, 2 м/с46%1039 гПаясно